createdAt,value
2022-09-17T00:01:34.909Z,5.35
2022-09-17T00:04:04.796Z,4.57
2022-09-17T00:06:35.521Z,2.92
2022-09-17T00:11:40.694Z,4.75
2022-09-17T00:14:14.455Z,2.47
2022-09-17T00:16:47.997Z,7.45
2022-09-17T00:19:25.391Z,5.18
2022-09-17T00:21:52.950Z,5.32
2022-09-17T00:24:21.125Z,3.90
2022-09-17T00:26:49.584Z,4.18
2022-09-17T00:29:17.616Z,6.85
2022-09-17T00:31:45.161Z,9.70
2022-09-17T00:34:12.685Z,5.67
2022-09-17T00:36:40.733Z,6.25
2022-09-17T00:39:11.524Z,5.50
2022-09-17T00:41:39.747Z,4.00
2022-09-17T00:44:57.533Z,3.90
2022-09-17T00:47:44.546Z,4.85
2022-09-17T00:50:35.203Z,4.82
2022-09-17T00:53:17.097Z,7.18
2022-09-17T00:55:59.119Z,5.47
2022-09-17T00:58:27.457Z,4.55
2022-09-17T01:00:54.727Z,6.60
2022-09-17T01:03:23.578Z,7.93
2022-09-17T01:06:23.604Z,5.10
2022-09-17T01:09:05.854Z,4.22
2022-09-17T01:11:58.687Z,6.05
2022-09-17T01:15:14.769Z,6.88
2022-09-17T01:18:12.528Z,5.82
2022-09-17T01:21:28.159Z,3.30
2022-09-17T01:24:04.252Z,7.05
2022-09-17T01:27:12.483Z,7.07
2022-09-17T01:30:17.125Z,5.40
2022-09-17T01:33:30.438Z,4.63
2022-09-17T01:36:21.370Z,6.68
2022-09-17T01:39:54.916Z,8.10
2022-09-17T01:42:38.546Z,7.05
2022-09-17T01:45:39.663Z,5.30
2022-09-17T01:48:33.942Z,7.00
2022-09-17T01:51:22.285Z,7.75
2022-09-17T01:56:48.576Z,7.40
2022-09-17T02:01:59.140Z,3.92
2022-09-17T02:04:36.592Z,5.18
2022-09-17T02:07:12.987Z,6.10
2022-09-17T02:09:55.772Z,5.68
2022-09-17T02:12:36.672Z,6.45
2022-09-17T02:15:13.031Z,5.22
2022-09-17T02:17:56.541Z,5.68
2022-09-17T02:20:42.607Z,3.38
2022-09-17T02:23:21.319Z,8.35
2022-09-17T02:26:01.369Z,7.32
2022-09-17T02:28:43.113Z,9.00
2022-09-17T02:31:11.738Z,7.68
2022-09-17T02:33:43.639Z,5.35
2022-09-17T02:36:11.037Z,5.63
2022-09-17T02:38:41.767Z,7.40
2022-09-17T02:41:25.427Z,5.10
2022-09-17T02:44:29.625Z,5.38
2022-09-17T02:47:30.615Z,5.70
2022-09-17T02:50:33.731Z,4.95
2022-09-17T02:53:44.429Z,5.30
2022-09-17T02:56:31.036Z,5.50
2022-09-17T02:59:12.143Z,8.48
2022-09-17T03:01:47.999Z,5.95
2022-09-17T03:04:20.247Z,7.40
2022-09-17T03:06:48.544Z,7.20
2022-09-17T03:09:17.108Z,7.70
2022-09-17T03:11:44.548Z,7.32
2022-09-17T03:14:11.804Z,12.18
2022-09-17T03:16:39.335Z,7.38
2022-09-17T03:19:06.641Z,8.87
2022-09-17T03:21:33.913Z,6.60
2022-09-17T03:24:01.317Z,6.63
2022-09-17T03:26:28.512Z,10.68
2022-09-17T03:28:55.683Z,6.97
2022-09-17T03:31:23.102Z,6.90
2022-09-17T03:33:50.685Z,5.50
2022-09-17T03:36:17.976Z,8.05
2022-09-17T03:38:45.190Z,7.88
2022-09-17T03:41:12.819Z,5.38
2022-09-17T03:43:40.070Z,6.13
2022-09-17T03:46:08.965Z,6.47
2022-09-17T03:48:37.320Z,8.07
2022-09-17T03:51:05.732Z,6.70
2022-09-17T03:53:33.691Z,8.65
2022-09-17T03:56:04.362Z,7.50
2022-09-17T03:58:32.283Z,10.07
2022-09-17T04:00:59.805Z,11.13
2022-09-17T04:03:28.591Z,7.55
2022-09-17T04:05:56.912Z,9.02
2022-09-17T04:08:24.634Z,9.73
2022-09-17T04:10:52.038Z,5.25
2022-09-17T04:13:19.459Z,8.68
2022-09-17T04:15:48.399Z,5.95
2022-09-17T04:18:16.432Z,8.32
2022-09-17T04:20:43.819Z,5.97
2022-09-17T04:23:12.516Z,4.65
2022-09-17T04:25:39.821Z,5.30
2022-09-17T04:28:07.582Z,7.78
2022-09-17T04:30:35.034Z,9.30
2022-09-17T04:33:02.539Z,9.85
2022-09-17T04:35:30.603Z,6.50
2022-09-17T04:37:58.824Z,6.32
2022-09-17T04:40:27.860Z,5.82
2022-09-17T04:42:59.599Z,6.22
2022-09-17T04:45:27.642Z,5.80
2022-09-17T04:47:55.858Z,6.78
2022-09-17T04:50:23.535Z,10.05
2022-09-17T04:52:50.856Z,6.60
2022-09-17T04:55:18.613Z,9.27
2022-09-17T04:57:53.783Z,9.60
2022-09-17T05:00:23.442Z,5.15
2022-09-17T05:02:54.435Z,8.48
2022-09-17T05:05:22.843Z,7.95
2022-09-17T05:07:50.174Z,6.75
2022-09-17T05:10:19.949Z,8.02
2022-09-17T05:12:57.508Z,7.78
2022-09-17T05:15:27.833Z,5.73
2022-09-17T05:17:55.175Z,10.48
2022-09-17T05:20:22.912Z,10.00
2022-09-17T05:22:52.506Z,6.82
2022-09-17T05:25:25.945Z,5.38
2022-09-17T05:27:54.839Z,6.80
2022-09-17T05:30:22.556Z,6.82
2022-09-17T05:32:58.140Z,6.80
2022-09-17T05:35:25.483Z,7.10
2022-09-17T05:37:57.401Z,9.20
2022-09-17T05:40:25.845Z,9.10
2022-09-17T05:45:20.440Z,5.97
2022-09-17T05:47:47.673Z,5.93
2022-09-17T05:50:14.974Z,7.43
2022-09-17T05:52:43.780Z,11.33
2022-09-17T05:57:38.070Z,7.75
2022-09-17T06:00:06.595Z,9.93
2022-09-17T06:05:02.030Z,9.38
2022-09-17T06:07:29.938Z,9.60
2022-09-17T06:09:57.244Z,7.82
2022-09-17T06:12:24.502Z,5.78
2022-09-17T06:14:51.859Z,9.93
2022-09-17T06:17:22.267Z,5.90
2022-09-17T06:19:49.640Z,7.47
2022-09-17T06:22:20.405Z,8.63
2022-09-17T06:24:47.633Z,9.35
2022-09-17T06:27:15.176Z,6.72
2022-09-17T06:29:43.978Z,8.13
2022-09-17T06:32:13.109Z,6.50
2022-09-17T06:34:40.662Z,8.63
2022-09-17T06:37:08.015Z,9.85
2022-09-17T06:39:35.297Z,9.88
2022-09-17T06:42:04.798Z,5.78
2022-09-17T06:44:32.131Z,6.03
2022-09-17T06:46:59.516Z,6.55
2022-09-17T06:49:27.192Z,5.93
2022-09-17T06:51:54.397Z,9.00
2022-09-17T06:54:21.631Z,7.50
2022-09-17T06:56:48.847Z,8.02
2022-09-17T06:59:16.251Z,6.38
2022-09-17T07:01:43.823Z,8.27
2022-09-17T07:04:11.168Z,7.77
2022-09-17T07:06:38.520Z,5.97
2022-09-17T07:09:11.144Z,7.43
2022-09-17T07:11:41.920Z,4.82
2022-09-17T07:14:09.502Z,11.77
2022-09-17T07:16:36.888Z,8.30
2022-09-17T07:19:05.018Z,7.35
2022-09-17T07:21:32.740Z,6.70
2022-09-17T07:24:00.077Z,6.78
2022-09-17T07:26:27.385Z,7.53
2022-09-17T07:28:56.842Z,8.13
2022-09-17T07:31:24.201Z,8.15
2022-09-17T07:33:51.568Z,7.57
2022-09-17T07:36:18.905Z,7.60
2022-09-17T07:38:48.944Z,11.57
2022-09-17T07:41:22.076Z,7.72
2022-09-17T07:43:53.343Z,5.75
2022-09-17T07:46:21.699Z,7.60
2022-09-17T07:48:50.039Z,9.35
2022-09-17T07:51:23.894Z,6.93
2022-09-17T07:53:58.039Z,8.63
2022-09-17T07:56:27.549Z,8.82
2022-09-17T07:58:55.764Z,9.32
2022-09-17T08:01:23.212Z,8.38
2022-09-17T08:03:53.993Z,6.95
2022-09-17T08:06:30.817Z,5.20
2022-09-17T08:09:02.517Z,2.80
2022-09-17T08:11:54.428Z,3.85
2022-09-17T08:14:24.534Z,4.45
2022-09-17T08:16:54.630Z,3.45
2022-09-17T08:19:22.335Z,3.22
2022-09-17T08:21:49.878Z,3.40
2022-09-17T08:24:17.328Z,4.60
2022-09-17T08:26:44.633Z,4.00
2022-09-17T08:29:12.230Z,5.60
2022-09-17T08:31:39.615Z,5.90
2022-09-17T08:34:11.821Z,3.30
2022-09-17T08:36:39.362Z,4.50
2022-09-17T08:39:06.896Z,2.90
2022-09-17T08:42:13.537Z,6.13
2022-09-17T08:44:46.760Z,2.92
2022-09-17T08:47:25.833Z,1.75
2022-09-17T08:50:00.566Z,2.63
2022-09-17T08:52:39.026Z,4.80
2022-09-17T08:55:41.623Z,4.13
2022-09-17T08:59:06.319Z,3.72
2022-09-17T09:02:28.805Z,1.25
2022-09-17T09:05:02.671Z,3.80
2022-09-17T09:07:42.524Z,2.95
2022-09-17T09:10:38.075Z,1.55
2022-09-17T09:13:06.818Z,2.88
2022-09-17T09:15:42.081Z,4.53
2022-09-17T09:18:27.139Z,1.17
2022-09-17T09:21:30.754Z,1.95
2022-09-17T09:24:26.514Z,2.58
2022-09-17T09:27:16.214Z,5.15
2022-09-17T09:30:15.612Z,5.47
2022-09-17T09:33:15.739Z,5.22
2022-09-17T09:35:45.583Z,5.28
2022-09-17T09:38:34.236Z,5.50
2022-09-17T09:41:12.306Z,3.20
2022-09-17T09:44:06.426Z,5.43
2022-09-17T09:47:35.236Z,2.70
2022-09-17T09:50:19.121Z,5.93
2022-09-17T09:53:10.383Z,4.15
2022-09-17T09:56:30.112Z,3.10
2022-09-17T09:58:57.295Z,2.70
2022-09-17T10:01:30.705Z,4.90
2022-09-17T10:03:59.054Z,4.30
2022-09-17T10:06:31.533Z,2.03
2022-09-17T10:09:01.736Z,7.13
2022-09-17T10:11:35.081Z,5.68
2022-09-17T10:14:25.767Z,2.42
2022-09-17T10:17:29.021Z,3.00
2022-09-17T10:20:10.645Z,2.85
2022-09-17T10:22:46.113Z,3.53
2022-09-17T10:25:34.551Z,4.15
2022-09-17T10:28:28.194Z,1.33
2022-09-17T10:31:10.485Z,3.22
2022-09-17T10:33:58.328Z,2.22
2022-09-17T10:36:58.845Z,2.22
2022-09-17T10:39:37.602Z,5.35
2022-09-17T10:42:16.423Z,5.25
2022-09-17T10:44:58.740Z,3.00
2022-09-17T10:47:32.126Z,2.45
2022-09-17T10:50:21.066Z,2.35
2022-09-17T10:52:55.828Z,4.25
2022-09-17T10:55:37.256Z,1.38
2022-09-17T10:58:10.113Z,2.08
2022-09-17T11:00:59.151Z,3.03
2022-09-17T11:03:42.395Z,2.88
2022-09-17T11:06:41.550Z,2.08
2022-09-17T11:09:42.220Z,3.15
2022-09-17T11:12:21.306Z,2.70
2022-09-17T11:15:15.343Z,3.65
2022-09-17T11:18:16.339Z,2.85
2022-09-17T11:21:15.680Z,6.45
2022-09-17T11:24:11.243Z,2.08
2022-09-17T11:27:20.299Z,1.42
2022-09-17T11:30:19.763Z,2.42
2022-09-17T11:33:32.412Z,2.05
2022-09-17T11:36:23.178Z,1.25
2022-09-17T11:38:53.808Z,2.88
2022-09-17T11:41:35.944Z,2.67
2022-09-17T11:44:21.914Z,2.55
2022-09-17T11:47:05.635Z,0.57
2022-09-17T11:49:48.685Z,2.53
2022-09-17T11:52:40.312Z,2.53
2022-09-17T11:55:45.129Z,3.88
2022-09-17T11:58:50.183Z,4.55
2022-09-17T12:01:45.012Z,2.58
2022-09-17T12:04:49.868Z,2.25
2022-09-17T12:08:20.394Z,2.38
2022-09-17T12:11:11.877Z,4.05
2022-09-17T12:14:06.546Z,1.55
2022-09-17T12:16:39.107Z,1.05
2022-09-17T12:19:36.659Z,3.15
2022-09-17T12:22:21.248Z,1.95
2022-09-17T12:24:52.521Z,1.90
2022-09-17T12:27:57.017Z,1.63
2022-09-17T12:30:32.376Z,2.78
2022-09-17T12:33:34.356Z,1.30
2022-09-17T12:36:15.438Z,3.45
2022-09-17T12:39:09.607Z,5.13
2022-09-17T12:42:13.306Z,2.15
2022-09-17T12:44:43.771Z,1.42
2022-09-17T12:47:41.142Z,1.42
2022-09-17T12:51:02.654Z,2.83
2022-09-17T12:53:43.218Z,2.75
2022-09-17T12:56:37.954Z,0.38
2022-09-17T12:59:13.099Z,3.00
2022-09-17T13:02:26.886Z,7.75
2022-09-17T13:05:23.634Z,1.58
2022-09-17T13:08:32.848Z,1.77
2022-09-17T13:11:41.603Z,1.75
2022-09-17T13:14:36.361Z,2.38
2022-09-17T13:17:24.920Z,5.60
2022-09-17T13:20:19.181Z,1.55
2022-09-17T13:22:51.413Z,3.42
2022-09-17T13:25:21.071Z,1.35
2022-09-17T13:27:51.052Z,2.08
2022-09-17T13:30:20.971Z,2.10
2022-09-17T13:32:52.768Z,3.05
2022-09-17T13:35:23.300Z,1.83
2022-09-17T13:37:58.514Z,3.42
2022-09-17T13:40:33.154Z,3.08
2022-09-17T13:43:34.123Z,3.83
2022-09-17T13:46:01.275Z,2.03
2022-09-17T13:48:35.015Z,5.10
2022-09-17T13:51:32.133Z,3.25
2022-09-17T13:54:07.358Z,3.08
2022-09-17T13:56:43.733Z,9.25
2022-09-17T13:59:26.517Z,2.22
2022-09-17T14:02:18.728Z,4.40
2022-09-17T14:04:48.655Z,4.25
2022-09-17T14:07:21.920Z,1.95
2022-09-17T14:09:53.726Z,3.42
2022-09-17T14:12:43.133Z,2.67
2022-09-17T14:15:41.377Z,1.63
2022-09-17T14:21:36.094Z,3.05
2022-09-17T14:24:20.865Z,5.40
2022-09-17T14:27:15.041Z,3.80
2022-09-17T14:30:09.347Z,5.72
2022-09-17T14:33:18.732Z,3.75
2022-09-17T14:35:49.206Z,3.95
2022-09-17T14:38:39.921Z,4.95
2022-09-17T14:41:23.378Z,2.78
2022-09-17T14:44:02.832Z,4.43
2022-09-17T14:47:01.804Z,3.88
2022-09-17T14:49:38.493Z,2.00
2022-09-17T14:52:48.196Z,2.45
2022-09-17T14:55:31.830Z,4.43
2022-09-17T14:58:05.049Z,3.55
2022-09-17T15:00:38.256Z,2.20
2022-09-17T15:03:06.851Z,0.88
2022-09-17T15:05:42.474Z,1.40
2022-09-17T15:08:22.995Z,1.42
2022-09-17T15:10:59.624Z,1.95
2022-09-17T15:13:29.912Z,2.70
2022-09-17T15:16:27.059Z,1.80
2022-09-17T15:19:00.389Z,3.83
2022-09-17T15:21:41.646Z,1.92
2022-09-17T15:24:26.444Z,5.88
2022-09-17T15:27:10.576Z,2.78
2022-09-17T15:29:43.644Z,1.65
2022-09-17T15:32:16.501Z,3.22
2022-09-17T15:34:43.876Z,2.30
2022-09-17T15:37:27.632Z,2.35
2022-09-17T15:39:57.637Z,5.10
2022-09-17T15:42:30.949Z,4.22
2022-09-17T15:45:21.079Z,4.47
2022-09-17T15:47:59.981Z,1.95
2022-09-17T15:50:50.686Z,1.13
2022-09-17T15:53:31.398Z,3.30
2022-09-17T15:56:07.635Z,0.93
2022-09-17T15:58:47.094Z,1.92
2022-09-17T16:01:14.293Z,2.08
2022-09-17T16:03:41.897Z,2.30
2022-09-17T16:06:18.259Z,4.07
2022-09-17T16:09:01.078Z,4.15
2022-09-17T16:11:33.137Z,4.53
2022-09-17T16:14:01.755Z,2.40
2022-09-17T16:16:37.873Z,4.50
2022-09-17T16:19:08.756Z,2.15
2022-09-17T16:21:36.043Z,5.00
2022-09-17T16:24:05.411Z,10.25
2022-09-17T16:26:35.359Z,2.78
2022-09-17T16:29:17.727Z,2.13
2022-09-17T16:31:56.350Z,4.85
2022-09-17T16:34:23.681Z,3.40
2022-09-17T16:36:51.146Z,3.55
2022-09-17T16:39:18.619Z,2.45
2022-09-17T16:41:45.799Z,3.95
2022-09-17T16:44:14.466Z,2.85
2022-09-17T16:46:41.904Z,4.20
2022-09-17T16:49:09.343Z,8.67
2022-09-17T16:51:36.581Z,5.63
2022-09-17T16:54:04.019Z,3.28
2022-09-17T16:56:31.712Z,1.40
2022-09-17T16:58:59.095Z,1.17
2022-09-17T17:01:34.534Z,1.88
2022-09-17T17:04:02.077Z,2.35
2022-09-17T17:06:30.781Z,1.43
2022-09-17T17:09:01.401Z,1.55
2022-09-17T17:11:28.887Z,0.70
2022-09-17T17:13:59.087Z,1.43
2022-09-17T17:16:29.594Z,1.23
2022-09-17T17:19:06.428Z,2.83
2022-09-17T17:21:33.692Z,0.80
2022-09-17T17:24:01.994Z,0.75
2022-09-17T17:26:29.480Z,0.70
2022-09-17T17:28:56.770Z,0.80
2022-09-17T17:31:24.065Z,1.40
2022-09-17T17:33:52.561Z,2.13
2022-09-17T17:36:23.476Z,0.22
2022-09-17T17:38:50.819Z,1.80
2022-09-17T17:41:18.785Z,1.40
2022-09-17T17:43:52.133Z,1.80
2022-09-17T17:46:20.105Z,1.67
2022-09-17T17:48:47.539Z,4.03
2022-09-17T17:51:24.144Z,0.85
2022-09-17T17:53:51.707Z,0.35
2022-09-17T17:56:20.654Z,0.30
2022-09-17T17:58:54.361Z,0.38
2022-09-17T18:01:27.373Z,3.38
2022-09-17T18:04:02.459Z,0.68
2022-09-17T18:06:31.015Z,1.50
2022-09-17T18:09:03.889Z,1.25
2022-09-17T18:11:31.640Z,0.95
2022-09-17T18:14:01.965Z,1.52
2022-09-17T18:16:30.107Z,0.85
2022-09-17T18:18:58.390Z,1.15
2022-09-17T18:21:27.719Z,0.50
2022-09-17T18:23:55.032Z,1.73
2022-09-17T18:26:28.991Z,1.13
2022-09-17T18:28:56.708Z,0.55
2022-09-17T18:31:33.885Z,0.60
2022-09-17T18:34:12.025Z,1.48
2022-09-17T18:36:40.665Z,1.92
2022-09-17T18:41:58.593Z,0.40
2022-09-17T18:44:25.878Z,1.88
2022-09-17T18:46:53.182Z,1.60
2022-09-17T18:49:20.666Z,0.55
2022-09-17T18:51:47.941Z,1.80
2022-09-17T18:54:15.209Z,2.03
2022-09-17T18:56:42.787Z,1.10
2022-09-17T18:59:11.092Z,1.10
2022-09-17T19:01:39.006Z,6.75
2022-09-17T19:04:10.086Z,4.60
2022-09-17T19:06:37.409Z,1.63
2022-09-17T19:09:06.539Z,3.13
2022-09-17T19:11:36.339Z,1.48
2022-09-17T19:14:04.336Z,2.25
2022-09-17T19:16:31.722Z,1.88
2022-09-17T19:19:21.340Z,1.65
2022-09-17T19:21:58.757Z,1.05
2022-09-17T19:24:26.110Z,1.77
2022-09-17T19:26:56.417Z,1.10
2022-09-17T19:29:23.826Z,1.08
2022-09-17T19:31:51.110Z,2.75
2022-09-17T19:34:18.362Z,3.10
2022-09-17T19:36:45.544Z,1.50
2022-09-17T19:39:12.836Z,3.00
2022-09-17T19:41:40.159Z,1.35
2022-09-17T19:44:09.819Z,2.78
2022-09-17T19:46:37.101Z,2.15
2022-09-17T19:49:11.977Z,1.17
2022-09-17T19:51:39.267Z,1.02
2022-09-17T19:54:10.333Z,1.15
2022-09-17T19:56:38.318Z,2.08
2022-09-17T19:59:05.877Z,2.08
2022-09-17T20:01:35.112Z,2.33
2022-09-17T20:04:02.795Z,1.77
2022-09-17T20:06:34.719Z,1.77
2022-09-17T20:09:08.776Z,1.48
2022-09-17T20:11:41.230Z,2.58
2022-09-17T20:14:11.902Z,1.00
2022-09-17T20:16:40.338Z,4.72
2022-09-17T20:21:35.349Z,2.13
2022-09-17T20:24:02.680Z,1.63
2022-09-17T20:26:30.033Z,3.38
2022-09-17T20:28:57.471Z,1.35
2022-09-17T20:31:28.515Z,3.33
2022-09-17T20:33:59.840Z,1.60
2022-09-17T20:36:36.422Z,2.15
2022-09-17T20:39:14.583Z,3.70
2022-09-17T20:41:47.001Z,3.33
2022-09-17T20:44:14.348Z,2.40
2022-09-17T20:46:41.697Z,1.98
2022-09-17T20:49:09.304Z,5.03
2022-09-17T20:51:36.591Z,6.90
2022-09-17T20:54:04.674Z,3.92
2022-09-17T20:56:34.535Z,3.63
2022-09-17T20:59:18.892Z,6.05
2022-09-17T21:01:49.886Z,1.60
2022-09-17T21:04:20.461Z,1.95
2022-09-17T21:06:52.657Z,3.92
2022-09-17T21:09:20.984Z,2.03
2022-09-17T21:11:49.505Z,2.10
2022-09-17T21:16:49.070Z,3.25
2022-09-17T21:19:16.768Z,4.53
2022-09-17T21:21:44.661Z,4.82
2022-09-17T21:24:12.430Z,7.32
2022-09-17T21:26:39.727Z,4.40
2022-09-17T21:29:07.293Z,3.67
2022-09-17T21:31:37.893Z,4.60
2022-09-17T21:34:11.330Z,3.85
2022-09-17T21:36:41.044Z,2.95
2022-09-17T21:39:15.492Z,4.28
2022-09-17T21:41:48.190Z,4.25
2022-09-17T21:44:17.928Z,2.45
2022-09-17T21:46:45.249Z,8.50
2022-09-17T21:49:13.581Z,2.97
2022-09-17T21:51:43.800Z,3.22
2022-09-17T21:54:15.921Z,2.53
2022-09-17T21:56:47.049Z,6.18
2022-09-17T21:59:16.313Z,6.20
2022-09-17T22:01:47.542Z,3.10
2022-09-17T22:04:18.934Z,6.85
2022-09-17T22:06:48.903Z,7.03
2022-09-17T22:09:22.168Z,2.08
2022-09-17T22:11:50.890Z,6.20
2022-09-17T22:14:22.142Z,3.10
2022-09-17T22:16:52.913Z,6.07
2022-09-17T22:19:22.298Z,2.50
2022-09-17T22:21:53.440Z,5.30
2022-09-17T22:24:23.238Z,2.35
2022-09-17T22:26:57.365Z,3.97
2022-09-17T22:29:27.625Z,5.25
2022-09-17T22:31:55.235Z,5.47
2022-09-17T22:34:23.643Z,6.22
2022-09-17T22:36:51.113Z,3.53
2022-09-17T22:39:21.884Z,5.75
2022-09-17T22:41:50.231Z,5.30
2022-09-17T22:44:20.016Z,3.08
2022-09-17T22:46:51.111Z,3.40
2022-09-17T22:49:19.359Z,2.53
2022-09-17T22:51:47.330Z,2.45
2022-09-17T22:54:18.083Z,3.38
2022-09-17T22:56:47.407Z,5.07
2022-09-17T22:59:15.151Z,4.45
2022-09-17T23:01:42.704Z,2.00
2022-09-17T23:04:10.326Z,7.30
2022-09-17T23:06:40.052Z,4.67
2022-09-17T23:09:08.096Z,3.72
2022-09-17T23:11:39.479Z,5.07
2022-09-17T23:14:11.649Z,1.67
2022-09-17T23:16:43.474Z,2.97
2022-09-17T23:19:11.895Z,5.43
2022-09-17T23:24:08.325Z,3.03
2022-09-17T23:26:35.709Z,1.50
2022-09-17T23:29:05.315Z,1.73
2022-09-17T23:31:37.094Z,3.75
2022-09-17T23:34:06.162Z,6.10
2022-09-17T23:36:36.969Z,5.18
2022-09-17T23:39:07.708Z,2.53
2022-09-17T23:41:40.000Z,3.42
2022-09-17T23:44:14.492Z,2.25
2022-09-17T23:46:42.750Z,2.58
2022-09-17T23:49:11.911Z,4.38
2022-09-17T23:51:39.758Z,3.22
2022-09-17T23:54:07.322Z,3.10
2022-09-17T23:56:35.653Z,1.75
2022-09-17T23:59:03.607Z,4.63
